Etusivu
METAR-TAF:

METAR-TAF

Lentoasemat :

Siegen, Saksa

Leveyspiiri: 50-42-28N, Pituuspiiri: 008-04-59E, korkeus merenpinnasta: 602 m

Tämänhetkinen sää

Tämä raportti tehtiin 16 minuuttia sitten, kello 14.50 UTC
Tuuli 6 kn luoteesta
Lämpötila 11°C
Kosteus 71%
Ilmanpaine 1029 hPa
Näkyvyys 10 km tai enemmän
ei pilviä alle 1500 m:ssä eikä cumulonimbus-pilviä

METAR: EDGS 201450Z 31006KT CAVOK 11/06 Q1029

Aika: 17:06 (15:06 UTC)

Sääennuste

Tämä raportti tehtiin 1 tunti ja 6 minuuttia sitten, kello 14.00 UTC
Ennuste voimassa 20. päivästä klo 15 UTC - 20. päivään klo 24 UTC
Tuuli 5 kn pohjoisen/luoteesta
Näkyvyys 10 km tai enemmän
ei pilviä alle 1500 m:ssä eikä cumulonimbus-pilviä

TAF: EDGS 201400Z 2015/2024 34005KT CAVOK

Säähavainnot ja -ennusteet yli 4000 lentoasemalta (METAR- ja TAF-raportit).

Käytössä olevat sääasemat on merkitty karttaan keltaisilla ja punaisilla pisteillä.

Aseta hiiri pisteen päälle nähdäksesi sääaseman nimen.

Klikkaa sitten nähdäksesi säähavainnot ja -ennusteet.

Kartan vaihtaminen: klikkaa mustalla rastilla varustettuja vihreitä pisteitä, niin voit zoomata sisään; viivalla varustettua vihreää pistettä, niin voit zoomata ulos tai vihreitä nuolia, niin pääset viereisille kartoille.


METAR-TAF: